createdAt,value
2019-02-19T00:01:38.015Z,2.45
2019-02-19T00:04:09.436Z,2.21
2019-02-19T00:06:41.947Z,2.17
2019-02-19T00:09:13.392Z,2.34
2019-02-19T00:11:44.843Z,2.19
2019-02-19T00:14:16.475Z,2.13
2019-02-19T00:16:47.878Z,2.17
2019-02-19T00:19:19.308Z,2.18
2019-02-19T00:21:50.788Z,2.16
2019-02-19T00:24:22.134Z,2.22
2019-02-19T00:26:53.531Z,2.13
2019-02-19T00:29:24.881Z,2.11
2019-02-19T00:31:56.321Z,2.21
2019-02-19T00:34:27.733Z,2.00
2019-02-19T00:36:59.193Z,1.99
2019-02-19T00:39:30.707Z,2.13
2019-02-19T00:42:02.129Z,2.10
2019-02-19T00:44:33.540Z,2.05
2019-02-19T00:47:05.113Z,2.20
2019-02-19T00:49:40.399Z,2.01
2019-02-19T00:52:11.545Z,2.23
2019-02-19T00:54:42.969Z,2.10
2019-02-19T00:57:14.419Z,2.07
2019-02-19T00:59:45.823Z,1.96
2019-02-19T01:02:17.283Z,1.96
2019-02-19T01:04:48.709Z,1.74
2019-02-19T01:07:20.221Z,1.78
2019-02-19T01:09:51.641Z,1.85
2019-02-19T01:12:23.551Z,1.87
2019-02-19T01:14:54.980Z,1.89
2019-02-19T01:17:26.492Z,1.91
2019-02-19T01:19:57.913Z,1.90
2019-02-19T01:22:29.402Z,1.97
2019-02-19T01:25:00.842Z,2.04
2019-02-19T01:27:34.032Z,1.92
2019-02-19T01:30:06.901Z,1.92
2019-02-19T01:32:38.364Z,2.00
2019-02-19T01:35:10.420Z,1.99
2019-02-19T01:37:41.861Z,1.96
2019-02-19T01:40:13.291Z,2.07
2019-02-19T01:42:44.731Z,2.00
2019-02-19T01:45:18.698Z,2.11
2019-02-19T01:47:50.130Z,2.17
2019-02-19T01:50:21.579Z,2.22
2019-02-19T01:52:53.008Z,2.28
2019-02-19T01:55:27.207Z,2.40
2019-02-19T01:57:58.938Z,2.45
2019-02-19T02:00:30.357Z,2.42
2019-02-19T02:03:01.715Z,2.37
2019-02-19T02:05:33.077Z,2.52
2019-02-19T02:08:04.532Z,2.49
2019-02-19T02:10:35.880Z,2.75
2019-02-19T02:13:07.250Z,2.73
2019-02-19T02:15:42.666Z,2.92
2019-02-19T02:18:11.808Z,2.90
2019-02-19T02:20:43.227Z,2.84
2019-02-19T02:23:14.683Z,2.83
2019-02-19T02:25:46.092Z,2.88
2019-02-19T02:28:17.566Z,2.88
2019-02-19T02:30:48.987Z,2.98
2019-02-19T02:33:20.392Z,2.84
2019-02-19T02:35:51.815Z,2.87
2019-02-19T02:38:23.303Z,2.72
2019-02-19T02:40:55.174Z,2.75
2019-02-19T02:43:26.786Z,2.77
2019-02-19T02:45:58.214Z,2.69
2019-02-19T02:48:29.664Z,2.65
2019-02-19T02:51:01.092Z,2.80
2019-02-19T02:53:32.559Z,2.68
2019-02-19T02:56:03.928Z,2.48
2019-02-19T02:58:35.946Z,2.59
2019-02-19T03:01:10.450Z,2.62
2019-02-19T03:03:53.320Z,2.49
2019-02-19T03:06:39.884Z,2.53
2019-02-19T03:09:14.556Z,2.49
2019-02-19T03:11:47.191Z,2.54
2019-02-19T03:14:21.360Z,2.41
2019-02-19T03:16:57.842Z,2.33
2019-02-19T03:19:29.326Z,2.45
2019-02-19T03:22:00.754Z,2.68
2019-02-19T03:24:32.246Z,2.34
2019-02-19T03:27:03.669Z,2.29
2019-02-19T03:29:35.135Z,2.26
2019-02-19T03:32:06.558Z,2.18
2019-02-19T03:34:38.042Z,2.19
2019-02-19T03:37:09.361Z,2.39
2019-02-19T03:39:40.835Z,2.30
2019-02-19T03:42:12.485Z,2.37
2019-02-19T03:44:43.917Z,2.38
2019-02-19T03:47:15.490Z,2.29
2019-02-19T03:49:48.220Z,2.32
2019-02-19T03:52:21.290Z,2.35
2019-02-19T03:54:52.824Z,2.20
2019-02-19T03:57:24.179Z,2.07
2019-02-19T03:59:55.633Z,2.07
2019-02-19T04:02:27.294Z,2.03
2019-02-19T04:04:58.720Z,2.06
2019-02-19T04:07:30.155Z,2.04
2019-02-19T04:10:01.626Z,2.04
2019-02-19T04:12:34.114Z,2.00
2019-02-19T04:15:05.691Z,1.91
2019-02-19T04:17:37.296Z,2.01
2019-02-19T04:20:09.479Z,2.21
2019-02-19T04:22:41.118Z,2.08
2019-02-19T04:25:12.602Z,2.22
2019-02-19T04:27:43.971Z,2.05
2019-02-19T04:30:15.395Z,1.91
2019-02-19T04:32:46.824Z,2.00
2019-02-19T04:35:18.904Z,2.03
2019-02-19T04:37:50.295Z,1.93
2019-02-19T04:40:21.718Z,1.98
2019-02-19T04:42:53.148Z,2.17
2019-02-19T04:45:24.577Z,1.82
2019-02-19T04:47:58.029Z,1.95
2019-02-19T04:50:29.189Z,2.13
2019-02-19T04:53:00.711Z,2.22
2019-02-19T04:55:32.170Z,2.34
2019-02-19T04:58:03.640Z,2.31
2019-02-19T05:00:35.195Z,2.38
2019-02-19T05:03:06.653Z,2.35
2019-02-19T05:05:39.691Z,2.39
2019-02-19T05:08:11.131Z,2.46
2019-02-19T05:10:42.594Z,2.53
2019-02-19T05:13:15.665Z,2.30
2019-02-19T05:15:47.031Z,2.29
2019-02-19T05:18:18.441Z,2.42
2019-02-19T05:20:51.533Z,2.27
2019-02-19T05:23:22.954Z,2.31
2019-02-19T05:25:54.411Z,2.30
2019-02-19T05:28:25.747Z,2.25
2019-02-19T05:30:57.315Z,2.16
2019-02-19T05:33:28.778Z,2.23
2019-02-19T05:36:00.309Z,2.10
2019-02-19T05:38:31.789Z,2.26
2019-02-19T05:41:03.480Z,2.20
2019-02-19T05:43:34.899Z,2.07
2019-02-19T05:46:06.352Z,2.01
2019-02-19T05:48:37.789Z,2.02
2019-02-19T05:51:09.151Z,1.86
2019-02-19T05:53:40.601Z,2.01
2019-02-19T05:56:12.080Z,1.87
2019-02-19T05:58:43.508Z,1.86
2019-02-19T06:01:14.989Z,1.84
2019-02-19T06:03:46.413Z,1.94
2019-02-19T06:06:17.868Z,2.02
2019-02-19T06:08:49.342Z,2.11
2019-02-19T06:11:23.011Z,1.92
2019-02-19T06:13:54.498Z,1.92
2019-02-19T06:16:26.005Z,2.03
2019-02-19T06:18:58.659Z,2.01
2019-02-19T06:21:30.101Z,1.97
2019-02-19T06:24:01.582Z,1.93
2019-02-19T06:26:33.021Z,2.06
2019-02-19T06:29:04.471Z,1.87
2019-02-19T06:31:35.853Z,1.96
2019-02-19T06:34:07.331Z,2.09
2019-02-19T06:36:38.818Z,2.34
2019-02-19T06:39:10.281Z,2.76
2019-02-19T06:41:46.315Z,2.75
2019-02-19T06:44:21.321Z,2.59
2019-02-19T06:46:54.110Z,2.24
2019-02-19T06:49:25.567Z,2.21
2019-02-19T06:51:57.438Z,2.12
2019-02-19T06:54:29.849Z,2.45
2019-02-19T06:57:03.113Z,2.60
2019-02-19T06:59:34.533Z,2.51
2019-02-19T07:02:42.963Z,2.59
2019-02-19T07:05:19.520Z,2.83
2019-02-19T07:07:50.963Z,3.10
2019-02-19T07:10:23.037Z,3.74
2019-02-19T07:12:57.396Z,5.12
2019-02-19T07:15:30.449Z,5.27
2019-02-19T07:18:01.877Z,5.61
2019-02-19T07:20:35.605Z,4.61
2019-02-19T07:23:08.297Z,5.08
2019-02-19T07:25:39.734Z,4.70
2019-02-19T07:28:11.233Z,5.48
2019-02-19T07:30:42.687Z,4.93
2019-02-19T07:33:14.104Z,5.17
2019-02-19T07:35:45.549Z,5.13
2019-02-19T07:38:17.047Z,4.94
2019-02-19T07:40:48.418Z,5.30
2019-02-19T07:43:19.889Z,5.55
2019-02-19T07:45:52.334Z,8.47
2019-02-19T07:48:26.446Z,8.24
2019-02-19T07:50:57.940Z,6.57
2019-02-19T07:53:29.417Z,6.29
2019-02-19T07:56:00.748Z,6.23
2019-02-19T07:58:32.328Z,6.49
2019-02-19T08:01:03.817Z,7.78
2019-02-19T08:03:35.368Z,9.30
2019-02-19T08:06:06.795Z,8.44
2019-02-19T08:08:38.281Z,7.94
2019-02-19T08:11:09.852Z,8.00
2019-02-19T08:13:41.234Z,8.60
2019-02-19T08:16:12.667Z,7.77
2019-02-19T08:18:45.243Z,7.79
2019-02-19T08:21:16.773Z,8.16
2019-02-19T08:23:48.249Z,8.28
2019-02-19T08:26:19.723Z,7.95
2019-02-19T08:28:51.332Z,8.77
2019-02-19T08:31:24.579Z,9.27
2019-02-19T08:33:57.654Z,11.07
2019-02-19T08:36:30.216Z,9.28
2019-02-19T08:39:01.591Z,8.78
2019-02-19T08:41:34.638Z,8.60
2019-02-19T08:44:06.132Z,9.66
2019-02-19T08:46:37.589Z,11.54
2019-02-19T08:49:09.046Z,9.86
2019-02-19T08:51:40.502Z,9.90
2019-02-19T08:54:13.580Z,11.75
2019-02-19T08:56:47.284Z,11.58
2019-02-19T08:59:19.256Z,11.52
2019-02-19T09:01:52.686Z,11.24
2019-02-19T09:04:24.140Z,10.64
2019-02-19T09:06:55.610Z,11.53
2019-02-19T09:09:27.307Z,11.81
2019-02-19T09:11:58.744Z,11.23
2019-02-19T09:14:30.208Z,11.44
2019-02-19T09:17:01.583Z,10.86
2019-02-19T09:19:33.123Z,11.31
2019-02-19T09:22:04.607Z,11.34
2019-02-19T09:24:36.093Z,11.51
2019-02-19T09:27:07.566Z,12.82
2019-02-19T09:29:39.008Z,14.03
2019-02-19T09:32:15.806Z,13.45
2019-02-19T09:34:48.826Z,12.82
2019-02-19T09:37:20.348Z,12.01
2019-02-19T09:39:55.864Z,12.18
2019-02-19T09:42:29.486Z,11.99
2019-02-19T09:45:07.663Z,12.08
2019-02-19T09:47:45.622Z,12.33
2019-02-19T09:50:17.069Z,12.01
2019-02-19T09:52:59.772Z,11.82
2019-02-19T09:55:40.131Z,11.77
2019-02-19T09:58:27.974Z,11.81
2019-02-19T10:01:00.713Z,12.16
2019-02-19T10:03:38.125Z,12.66
2019-02-19T10:06:13.522Z,12.50
2019-02-19T10:08:49.627Z,12.75
2019-02-19T10:11:26.267Z,12.24
2019-02-19T10:14:09.941Z,12.19
2019-02-19T10:16:42.164Z,12.02
2019-02-19T10:19:14.010Z,12.34
2019-02-19T10:21:45.823Z,12.78
2019-02-19T10:24:17.229Z,14.04
2019-02-19T10:26:49.690Z,13.29
2019-02-19T10:29:21.346Z,13.91
2019-02-19T10:31:52.930Z,13.39
2019-02-19T10:34:24.412Z,12.85
2019-02-19T10:36:55.848Z,13.01
2019-02-19T10:39:27.313Z,13.17
2019-02-19T10:41:58.813Z,13.03
2019-02-19T10:44:30.252Z,13.07
2019-02-19T10:47:05.453Z,13.12
2019-02-19T10:49:36.917Z,12.99
2019-02-19T10:52:08.475Z,13.10
2019-02-19T10:54:39.979Z,13.39
2019-02-19T10:57:11.451Z,13.40
2019-02-19T10:59:42.904Z,13.27
2019-02-19T11:02:16.399Z,13.32
2019-02-19T11:04:49.309Z,13.45
2019-02-19T11:07:20.777Z,13.38
2019-02-19T11:09:55.008Z,13.34
2019-02-19T11:12:26.477Z,13.51
2019-02-19T11:15:00.976Z,13.47
2019-02-19T11:17:32.584Z,13.46
2019-02-19T11:20:04.135Z,13.62
2019-02-19T11:22:35.685Z,13.59
2019-02-19T11:25:09.222Z,13.48
2019-02-19T11:27:40.736Z,13.28
2019-02-19T11:30:15.092Z,13.18
2019-02-19T11:32:46.676Z,13.36
2019-02-19T11:35:18.174Z,13.35
2019-02-19T11:37:49.631Z,13.03
2019-02-19T11:40:21.074Z,12.92
2019-02-19T11:42:52.528Z,13.01
2019-02-19T11:45:23.992Z,12.93
2019-02-19T11:47:55.503Z,12.78
2019-02-19T11:50:26.947Z,12.90
2019-02-19T11:52:58.527Z,12.76
2019-02-19T11:55:31.132Z,12.51
2019-02-19T11:58:02.547Z,12.55
2019-02-19T12:00:39.156Z,12.62
2019-02-19T12:03:10.665Z,12.87
2019-02-19T12:05:42.111Z,12.84
2019-02-19T12:08:15.725Z,12.80
2019-02-19T12:10:47.170Z,12.91
2019-02-19T12:13:18.655Z,12.94
2019-02-19T12:15:50.094Z,12.81
2019-02-19T12:18:21.557Z,13.04
2019-02-19T12:20:53.015Z,13.04
2019-02-19T12:23:24.453Z,12.82
2019-02-19T12:25:55.902Z,12.71
2019-02-19T12:28:27.400Z,12.84
2019-02-19T12:30:58.823Z,12.71
2019-02-19T12:33:30.389Z,12.61
2019-02-19T12:36:01.924Z,12.53
2019-02-19T12:38:33.358Z,12.54
2019-02-19T12:41:04.837Z,12.60
2019-02-19T12:43:36.306Z,12.46
2019-02-19T12:46:07.778Z,12.87
2019-02-19T12:48:44.260Z,12.41
2019-02-19T12:51:15.635Z,12.55
2019-02-19T12:53:49.926Z,12.48
2019-02-19T12:56:28.338Z,12.65
2019-02-19T12:59:11.358Z,12.46
2019-02-19T13:01:44.920Z,12.37
2019-02-19T13:04:20.978Z,12.56
2019-02-19T13:06:56.807Z,12.67
2019-02-19T13:09:33.807Z,12.92
2019-02-19T13:12:18.593Z,13.30
2019-02-19T13:14:52.314Z,13.37
2019-02-19T13:17:25.223Z,13.16
2019-02-19T13:19:58.221Z,13.17
2019-02-19T13:22:29.671Z,13.36
2019-02-19T13:25:01.111Z,13.66
2019-02-19T13:27:32.553Z,13.53
2019-02-19T13:30:04.051Z,13.50
2019-02-19T13:32:37.145Z,13.50
2019-02-19T13:35:09.575Z,13.47
2019-02-19T13:37:41.032Z,13.39
2019-02-19T13:40:13.389Z,13.38
2019-02-19T13:42:44.832Z,13.31
2019-02-19T13:45:16.302Z,13.45
2019-02-19T13:47:47.844Z,13.00
2019-02-19T13:50:21.111Z,12.86
2019-02-19T13:53:02.631Z,12.63
2019-02-19T13:55:38.222Z,12.48
2019-02-19T13:58:09.653Z,12.59
2019-02-19T14:00:42.937Z,12.47
2019-02-19T14:03:14.434Z,12.71
2019-02-19T14:05:45.909Z,12.72
2019-02-19T14:08:17.366Z,12.54
2019-02-19T14:10:48.825Z,12.52
2019-02-19T14:13:20.471Z,12.47
2019-02-19T14:15:58.912Z,12.58
2019-02-19T14:18:48.081Z,12.50
2019-02-19T14:21:38.410Z,12.42
2019-02-19T14:24:27.328Z,12.50
2019-02-19T14:27:08.110Z,12.80
2019-02-19T14:30:07.585Z,12.72
2019-02-19T14:32:56.947Z,12.85
2019-02-19T14:35:56.415Z,12.64
2019-02-19T14:38:53.738Z,12.59
2019-02-19T14:41:46.888Z,12.84
2019-02-19T14:44:36.226Z,12.95
2019-02-19T14:47:25.472Z,12.82
2019-02-19T14:50:12.856Z,12.65
2019-02-19T14:52:56.314Z,12.72
2019-02-19T14:55:45.507Z,12.50
2019-02-19T14:58:38.842Z,12.37
2019-02-19T15:01:35.550Z,12.33
2019-02-19T15:04:25.893Z,12.39
2019-02-19T15:07:09.576Z,12.46
2019-02-19T15:10:02.722Z,12.42
2019-02-19T15:12:53.535Z,12.58
2019-02-19T15:15:46.631Z,12.45
2019-02-19T15:18:46.065Z,12.56
2019-02-19T15:21:32.386Z,12.76
2019-02-19T15:24:29.125Z,12.62
2019-02-19T15:27:06.654Z,12.66
2019-02-19T15:29:54.352Z,12.80
2019-02-19T15:32:50.468Z,12.81
2019-02-19T15:35:39.585Z,12.68
2019-02-19T15:38:29.936Z,12.60
2019-02-19T15:41:23.172Z,12.35
2019-02-19T15:44:06.045Z,12.41
2019-02-19T15:46:56.313Z,12.45
2019-02-19T15:49:47.900Z,12.46
2019-02-19T15:52:41.029Z,12.42
2019-02-19T15:55:30.386Z,12.17
2019-02-19T15:58:22.101Z,12.21
2019-02-19T16:01:11.471Z,12.20
2019-02-19T16:03:52.220Z,12.02
2019-02-19T16:06:29.108Z,11.81
2019-02-19T16:09:18.131Z,11.66
2019-02-19T16:12:14.508Z,11.70
2019-02-19T16:15:03.527Z,11.62
2019-02-19T16:17:53.934Z,11.47
2019-02-19T16:20:47.278Z,11.53
2019-02-19T16:23:43.911Z,11.42
2019-02-19T16:26:37.307Z,11.39
2019-02-19T16:29:34.824Z,11.38
2019-02-19T16:32:35.797Z,11.37
2019-02-19T16:38:51.648Z,11.09
2019-02-19T16:41:56.628Z,11.07
2019-02-19T16:45:06.690Z,11.05
2019-02-19T16:48:06.790Z,11.10
2019-02-19T16:50:56.566Z,10.96
2019-02-19T16:53:57.388Z,10.94
2019-02-19T16:57:08.111Z,10.90
2019-02-19T17:00:07.459Z,10.89
2019-02-19T17:03:05.762Z,10.83
2019-02-19T17:06:03.930Z,10.84
2019-02-19T17:08:45.600Z,10.90
2019-02-19T17:11:29.764Z,10.67
2019-02-19T17:14:33.253Z,10.61
2019-02-19T17:17:39.357Z,10.42
2019-02-19T17:20:39.697Z,10.50
2019-02-19T17:23:46.352Z,10.43
2019-02-19T17:26:31.670Z,10.40
2019-02-19T17:29:28.228Z,10.33
2019-02-19T17:32:17.177Z,10.27
2019-02-19T17:35:01.846Z,10.24
2019-02-19T17:38:00.874Z,10.24
2019-02-19T17:41:03.442Z,10.27
2019-02-19T17:43:49.100Z,10.16
2019-02-19T17:46:35.505Z,9.93
2019-02-19T17:49:27.757Z,9.89
2019-02-19T17:52:08.448Z,9.97
2019-02-19T17:54:47.228Z,9.88
2019-02-19T17:57:36.654Z,9.91
2019-02-19T18:00:30.167Z,9.85
2019-02-19T18:03:24.553Z,9.79
2019-02-19T18:06:22.922Z,9.81
2019-02-19T18:09:15.770Z,9.82
2019-02-19T18:12:19.069Z,9.85
2019-02-19T18:15:05.187Z,9.77
2019-02-19T18:17:57.977Z,9.72
2019-02-19T18:20:32.967Z,9.72
2019-02-19T18:23:06.666Z,9.76
2019-02-19T18:25:40.009Z,9.81
2019-02-19T18:28:12.857Z,9.60
2019-02-19T18:30:46.355Z,9.58
2019-02-19T18:33:23.205Z,9.62
2019-02-19T18:36:00.016Z,9.66
2019-02-19T18:38:41.350Z,9.55
2019-02-19T18:41:19.467Z,9.67
2019-02-19T18:43:53.998Z,9.70
2019-02-19T18:46:28.962Z,9.69
2019-02-19T18:49:00.395Z,9.76
2019-02-19T18:51:31.829Z,9.93
2019-02-19T18:54:03.301Z,9.89
2019-02-19T18:56:34.818Z,10.04
2019-02-19T18:59:07.540Z,9.81
2019-02-19T19:01:40.608Z,9.76
2019-02-19T19:04:12.079Z,9.71
2019-02-19T19:06:43.507Z,9.65
2019-02-19T19:09:14.959Z,9.50
2019-02-19T19:11:46.382Z,9.59
2019-02-19T19:14:17.831Z,9.44
2019-02-19T19:16:49.259Z,9.49
2019-02-19T19:19:20.732Z,9.50
2019-02-19T19:21:52.242Z,9.45
2019-02-19T19:24:23.712Z,9.37
2019-02-19T19:26:55.146Z,9.35
2019-02-19T19:29:26.581Z,9.44
2019-02-19T19:31:58.019Z,9.41
2019-02-19T19:34:29.491Z,9.28
2019-02-19T19:37:00.919Z,9.34
2019-02-19T19:39:34.864Z,9.32
2019-02-19T19:42:06.328Z,9.28
2019-02-19T19:44:37.794Z,9.21
2019-02-19T19:47:09.257Z,9.26
2019-02-19T19:49:40.721Z,9.18
2019-02-19T19:52:12.155Z,9.09
2019-02-19T19:54:43.631Z,9.13
2019-02-19T19:57:15.075Z,8.98
2019-02-19T19:59:46.651Z,8.89
2019-02-19T20:02:20.909Z,8.99
2019-02-19T20:05:02.977Z,9.05
2019-02-19T20:07:36.584Z,9.04
2019-02-19T20:10:10.068Z,8.84
2019-02-19T20:12:41.544Z,8.74
2019-02-19T20:15:13.581Z,8.67
2019-02-19T20:17:45.140Z,8.70
2019-02-19T20:20:16.607Z,8.65
2019-02-19T20:22:48.028Z,8.65
2019-02-19T20:25:19.498Z,8.60
2019-02-19T20:27:51.004Z,8.58
2019-02-19T20:30:22.485Z,8.54
2019-02-19T20:32:54.017Z,8.42
2019-02-19T20:35:25.548Z,8.39
2019-02-19T20:37:57.035Z,8.44
2019-02-19T20:40:28.465Z,8.38
2019-02-19T20:42:59.957Z,8.33
2019-02-19T20:45:33.287Z,8.35
2019-02-19T20:48:04.758Z,8.34
2019-02-19T20:50:36.307Z,8.32
2019-02-19T20:53:07.783Z,8.21
2019-02-19T20:55:39.740Z,8.14
2019-02-19T20:58:11.336Z,7.93
2019-02-19T21:00:46.783Z,8.14
2019-02-19T21:03:19.929Z,8.06
2019-02-19T21:05:54.529Z,8.04
2019-02-19T21:08:30.377Z,7.83
2019-02-19T21:11:01.894Z,7.63
2019-02-19T21:13:33.411Z,7.73
2019-02-19T21:16:04.926Z,7.52
2019-02-19T21:18:36.522Z,7.65
2019-02-19T21:21:08.047Z,7.60
2019-02-19T21:23:41.509Z,7.64
2019-02-19T21:26:18.173Z,7.64
2019-02-19T21:28:55.831Z,7.63
2019-02-19T21:31:26.670Z,7.57
2019-02-19T21:34:01.016Z,7.61
2019-02-19T21:36:37.425Z,7.63
2019-02-19T21:39:12.827Z,7.65
2019-02-19T21:41:51.826Z,7.65
2019-02-19T21:44:25.501Z,7.58
2019-02-19T21:47:00.881Z,7.48
2019-02-19T21:49:35.561Z,7.49
2019-02-19T21:52:07.485Z,7.52
2019-02-19T21:54:39.003Z,7.49
2019-02-19T21:57:10.422Z,7.46
2019-02-19T21:59:41.881Z,7.41
2019-02-19T22:02:16.434Z,7.46
2019-02-19T22:04:47.579Z,7.27
2019-02-19T22:07:19.053Z,7.28
2019-02-19T22:09:55.535Z,7.38
2019-02-19T22:12:26.067Z,7.26
2019-02-19T22:14:57.489Z,7.11
2019-02-19T22:17:29.977Z,7.24
2019-02-19T22:20:03.732Z,7.32
2019-02-19T22:22:36.755Z,7.27
2019-02-19T22:25:08.267Z,7.26
2019-02-19T22:27:39.686Z,7.22
2019-02-19T22:30:11.649Z,7.21
2019-02-19T22:32:43.045Z,7.21
2019-02-19T22:35:14.477Z,7.16
2019-02-19T22:37:45.901Z,7.11
2019-02-19T22:40:17.338Z,6.97
2019-02-19T22:42:48.819Z,6.96
2019-02-19T22:45:24.454Z,6.96
2019-02-19T22:47:55.881Z,7.08
2019-02-19T22:50:27.306Z,7.10
2019-02-19T22:52:58.709Z,7.06
2019-02-19T22:55:54.925Z,7.04
2019-02-19T22:58:26.255Z,7.01
2019-02-19T23:01:23.183Z,7.00
2019-02-19T23:03:57.765Z,6.89
2019-02-19T23:06:29.211Z,7.04
2019-02-19T23:09:00.579Z,7.00
2019-02-19T23:11:33.635Z,7.04
2019-02-19T23:14:04.995Z,6.88
2019-02-19T23:16:36.609Z,6.97
2019-02-19T23:19:08.078Z,6.98
2019-02-19T23:21:39.500Z,7.04
2019-02-19T23:24:10.989Z,7.00
2019-02-19T23:26:42.341Z,7.03
2019-02-19T23:29:13.808Z,7.01
2019-02-19T23:31:45.310Z,7.06
2019-02-19T23:34:16.659Z,7.00
2019-02-19T23:36:54.105Z,6.96
2019-02-19T23:39:25.427Z,7.02
2019-02-19T23:41:58.620Z,7.03
2019-02-19T23:44:29.966Z,7.01
2019-02-19T23:47:03.875Z,7.01
2019-02-19T23:49:38.387Z,7.02
2019-02-19T23:52:09.835Z,6.97
2019-02-19T23:54:41.251Z,6.95
2019-02-19T23:57:12.629Z,6.90
2019-02-19T23:59:43.964Z,6.97
